createdAt,value
2022-09-14T00:01:36.197Z,3.10
2022-09-14T00:04:11.892Z,3.10
2022-09-14T00:06:39.713Z,3.25
2022-09-14T00:09:07.707Z,3.08
2022-09-14T00:11:36.028Z,3.08
2022-09-14T00:14:04.784Z,2.85
2022-09-14T00:16:35.585Z,2.58
2022-09-14T00:19:07.242Z,2.88
2022-09-14T00:21:39.696Z,2.83
2022-09-14T00:24:07.437Z,3.10
2022-09-14T00:26:35.451Z,2.88
2022-09-14T00:29:04.925Z,2.50
2022-09-14T00:31:35.743Z,3.08
2022-09-14T00:34:04.847Z,2.80
2022-09-14T00:36:37.781Z,3.38
2022-09-14T00:39:05.705Z,2.97
2022-09-14T00:41:35.981Z,3.30
2022-09-14T00:44:15.490Z,2.72
2022-09-14T00:46:45.357Z,3.08
2022-09-14T00:49:23.671Z,2.88
2022-09-14T00:52:00.368Z,3.03
2022-09-14T00:54:27.636Z,2.42
2022-09-14T00:56:55.945Z,2.78
2022-09-14T00:59:28.986Z,2.60
2022-09-14T01:01:56.423Z,3.08
2022-09-14T01:04:24.220Z,2.60
2022-09-14T01:06:59.518Z,2.85
2022-09-14T01:09:46.531Z,2.67
2022-09-14T01:12:35.403Z,3.00
2022-09-14T01:15:11.264Z,2.53
2022-09-14T01:18:01.962Z,2.83
2022-09-14T01:20:37.104Z,2.37
2022-09-14T01:23:29.043Z,2.80
2022-09-14T01:26:29.976Z,2.80
2022-09-14T01:29:16.604Z,2.50
2022-09-14T01:31:53.753Z,2.38
2022-09-14T01:34:31.921Z,2.70
2022-09-14T01:37:19.451Z,2.70
2022-09-14T01:39:51.771Z,2.53
2022-09-14T01:42:23.199Z,2.45
2022-09-14T01:44:55.686Z,2.58
2022-09-14T01:47:39.009Z,2.42
2022-09-14T01:50:17.956Z,2.38
2022-09-14T01:52:53.101Z,2.88
2022-09-14T01:55:28.478Z,2.80
2022-09-14T01:58:16.862Z,2.58
2022-09-14T02:00:46.483Z,2.70
2022-09-14T02:03:22.635Z,2.60
2022-09-14T02:05:59.560Z,2.70
2022-09-14T02:08:29.728Z,2.53
2022-09-14T02:10:57.824Z,2.53
2022-09-14T02:13:26.180Z,2.63
2022-09-14T02:15:53.977Z,2.40
2022-09-14T02:18:21.712Z,2.60
2022-09-14T02:21:28.743Z,2.50
2022-09-14T02:23:58.071Z,2.83
2022-09-14T02:26:25.675Z,2.58
2022-09-14T02:28:55.929Z,2.50
2022-09-14T02:31:32.022Z,2.70
2022-09-14T02:34:17.571Z,2.78
2022-09-14T02:37:12.548Z,2.60
2022-09-14T02:40:17.249Z,2.53
2022-09-14T02:43:24.417Z,3.00
2022-09-14T02:46:14.549Z,2.85
2022-09-14T02:48:50.873Z,2.78
2022-09-14T02:51:43.099Z,2.50
2022-09-14T02:54:23.714Z,2.70
2022-09-14T02:56:51.022Z,2.63
2022-09-14T02:59:18.700Z,2.42
2022-09-14T03:01:46.164Z,2.60
2022-09-14T03:04:13.438Z,2.58
2022-09-14T03:06:41.181Z,2.35
2022-09-14T03:09:08.444Z,2.42
2022-09-14T03:11:35.645Z,2.40
2022-09-14T03:14:02.999Z,2.47
2022-09-14T03:16:30.161Z,2.88
2022-09-14T03:18:57.557Z,2.50
2022-09-14T03:21:25.017Z,2.40
2022-09-14T03:23:55.192Z,2.58
2022-09-14T03:26:24.232Z,2.50
2022-09-14T03:28:57.386Z,2.25
2022-09-14T03:31:25.987Z,2.50
2022-09-14T03:33:56.601Z,2.53
2022-09-14T03:36:25.137Z,2.80
2022-09-14T03:38:54.386Z,2.63
2022-09-14T03:41:23.177Z,2.80
2022-09-14T03:43:51.432Z,3.10
2022-09-14T03:46:21.540Z,3.10
2022-09-14T03:48:49.361Z,2.92
2022-09-14T03:51:16.937Z,2.58
2022-09-14T03:53:45.485Z,2.45
2022-09-14T03:56:19.313Z,2.58
2022-09-14T03:58:48.124Z,2.90
2022-09-14T04:01:21.607Z,2.90
2022-09-14T04:03:49.489Z,3.00
2022-09-14T04:06:18.261Z,2.67
2022-09-14T04:08:46.917Z,3.20
2022-09-14T04:11:20.058Z,3.10
2022-09-14T04:13:48.400Z,2.80
2022-09-14T04:16:16.829Z,2.85
2022-09-14T04:18:44.594Z,2.42
2022-09-14T04:21:19.265Z,2.80
2022-09-14T04:24:12.735Z,2.72
2022-09-14T04:26:34.541Z,2.65
2022-09-14T04:29:02.043Z,2.92
2022-09-14T04:31:30.737Z,2.55
2022-09-14T04:33:58.451Z,2.53
2022-09-14T04:36:30.798Z,2.70
2022-09-14T04:39:00.771Z,2.80
2022-09-14T04:41:29.426Z,2.85
2022-09-14T04:43:57.310Z,2.63
2022-09-14T04:46:27.858Z,3.10
2022-09-14T04:48:55.724Z,2.88
2022-09-14T04:51:29.871Z,2.33
2022-09-14T04:54:01.521Z,3.15
2022-09-14T04:56:32.413Z,2.95
2022-09-14T04:59:01.981Z,2.70
2022-09-14T05:01:34.934Z,2.33
2022-09-14T05:04:03.171Z,2.53
2022-09-14T05:06:33.374Z,2.60
2022-09-14T05:09:02.074Z,2.80
2022-09-14T05:11:32.019Z,2.55
2022-09-14T05:14:01.399Z,3.03
2022-09-14T05:16:33.757Z,2.80
2022-09-14T05:19:03.775Z,2.58
2022-09-14T05:21:32.666Z,2.60
2022-09-14T05:24:02.289Z,2.58
2022-09-14T05:26:31.293Z,2.33
2022-09-14T05:29:00.509Z,2.58
2022-09-14T05:31:28.883Z,2.55
2022-09-14T05:33:56.334Z,2.60
2022-09-14T05:36:24.180Z,2.72
2022-09-14T05:38:52.537Z,2.45
2022-09-14T05:41:19.952Z,2.60
2022-09-14T05:43:47.165Z,2.65
2022-09-14T05:46:16.854Z,2.80
2022-09-14T05:48:44.442Z,2.75
2022-09-14T05:51:21.353Z,2.58
2022-09-14T05:53:53.835Z,2.45
2022-09-14T05:56:23.122Z,2.30
2022-09-14T05:58:50.935Z,2.50
2022-09-14T06:01:26.660Z,2.80
2022-09-14T06:04:00.267Z,2.75
2022-09-14T06:06:27.796Z,2.25
2022-09-14T06:08:56.341Z,2.28
2022-09-14T06:11:30.028Z,2.28
2022-09-14T06:13:57.688Z,2.40
2022-09-14T06:16:26.623Z,1.90
2022-09-14T06:18:56.010Z,2.15
2022-09-14T06:21:28.342Z,1.95
2022-09-14T06:23:56.132Z,1.88
2022-09-14T06:26:23.704Z,2.47
2022-09-14T06:28:51.141Z,2.20
2022-09-14T06:31:22.391Z,1.80
2022-09-14T06:33:51.681Z,2.78
2022-09-14T06:36:24.104Z,2.50
2022-09-14T06:38:52.194Z,2.30
2022-09-14T06:41:22.920Z,2.13
2022-09-14T06:43:51.092Z,2.22
2022-09-14T06:46:21.722Z,2.10
2022-09-14T06:48:59.411Z,2.40
2022-09-14T06:51:33.504Z,1.95
2022-09-14T06:54:02.482Z,2.40
2022-09-14T06:56:32.963Z,2.20
2022-09-14T06:59:00.171Z,2.40
2022-09-14T07:01:28.015Z,2.67
2022-09-14T07:03:55.274Z,2.22
2022-09-14T07:06:26.665Z,2.10
2022-09-14T07:08:55.726Z,2.40
2022-09-14T07:11:27.938Z,1.80
2022-09-14T07:13:58.798Z,2.17
2022-09-14T07:16:31.608Z,2.50
2022-09-14T07:19:02.018Z,2.28
2022-09-14T07:21:31.167Z,2.42
2022-09-14T07:23:58.947Z,1.95
2022-09-14T07:26:29.311Z,2.50
2022-09-14T07:29:01.954Z,2.13
2022-09-14T07:31:44.223Z,2.40
2022-09-14T07:34:11.915Z,2.22
2022-09-14T07:36:41.565Z,1.98
2022-09-14T07:39:11.767Z,2.28
2022-09-14T07:41:38.894Z,2.30
2022-09-14T07:44:08.102Z,2.58
2022-09-14T07:46:40.785Z,2.20
2022-09-14T07:49:09.569Z,2.10
2022-09-14T07:51:38.025Z,2.67
2022-09-14T07:54:11.699Z,2.20
2022-09-14T07:56:39.658Z,1.85
2022-09-14T07:59:33.481Z,2.30
2022-09-14T08:01:54.470Z,2.35
2022-09-14T08:04:21.899Z,1.95
2022-09-14T08:06:48.966Z,1.85
2022-09-14T08:09:16.332Z,2.05
2022-09-14T08:11:43.913Z,2.13
2022-09-14T08:14:12.936Z,2.38
2022-09-14T08:16:41.116Z,3.00
2022-09-14T08:19:13.448Z,2.53
2022-09-14T08:21:46.196Z,2.47
2022-09-14T08:24:20.149Z,2.47
2022-09-14T08:26:48.968Z,2.20
2022-09-14T08:29:19.242Z,2.30
2022-09-14T08:31:48.436Z,2.00
2022-09-14T08:34:17.266Z,2.53
2022-09-14T08:36:46.211Z,2.28
2022-09-14T08:39:15.402Z,2.38
2022-09-14T08:41:43.382Z,1.90
2022-09-14T08:44:37.778Z,2.30
2022-09-14T08:47:09.864Z,2.30
2022-09-14T08:49:44.934Z,2.63
2022-09-14T08:52:37.411Z,2.78
2022-09-14T08:55:17.828Z,2.25
2022-09-14T08:58:21.051Z,2.78
2022-09-14T09:01:12.298Z,2.65
2022-09-14T09:04:25.365Z,2.70
2022-09-14T09:06:52.677Z,2.30
2022-09-14T09:09:44.989Z,2.33
2022-09-14T09:12:22.464Z,2.10
2022-09-14T09:14:55.535Z,2.22
2022-09-14T09:17:38.442Z,2.40
2022-09-14T09:20:14.588Z,2.47
2022-09-14T09:22:47.438Z,2.55
2022-09-14T09:25:23.501Z,2.72
2022-09-14T09:27:54.573Z,3.10
2022-09-14T09:30:21.772Z,3.17
2022-09-14T09:32:48.995Z,3.08
2022-09-14T09:35:36.676Z,3.03
2022-09-14T09:38:19.024Z,2.80
2022-09-14T09:40:50.393Z,2.97
2022-09-14T09:43:38.588Z,2.90
2022-09-14T09:46:08.373Z,2.58
2022-09-14T09:48:38.481Z,2.90
2022-09-14T09:51:15.212Z,3.22
2022-09-14T09:54:08.521Z,2.97
2022-09-14T09:56:50.773Z,3.17
2022-09-14T09:59:44.198Z,3.05
2022-09-14T10:02:14.422Z,3.17
2022-09-14T10:05:00.639Z,2.70
2022-09-14T10:07:30.319Z,3.33
2022-09-14T10:10:09.725Z,2.90
2022-09-14T10:12:39.582Z,3.00
2022-09-14T10:15:18.902Z,3.78
2022-09-14T10:18:11.819Z,3.10
2022-09-14T10:20:54.245Z,3.45
2022-09-14T10:23:21.381Z,3.55
2022-09-14T10:26:13.374Z,3.50
2022-09-14T10:31:18.705Z,3.92
2022-09-14T10:33:47.710Z,4.43
2022-09-14T10:36:24.388Z,4.22
2022-09-14T10:38:58.672Z,4.63
2022-09-14T10:41:48.527Z,4.00
2022-09-14T10:44:45.200Z,4.68
2022-09-14T10:47:28.336Z,4.47
2022-09-14T10:50:28.090Z,4.50
2022-09-14T10:53:07.569Z,4.32
2022-09-14T10:55:56.397Z,4.30
2022-09-14T10:58:40.818Z,4.22
2022-09-14T11:01:26.076Z,4.47
2022-09-14T11:04:18.209Z,3.88
2022-09-14T11:07:01.125Z,3.92
2022-09-14T11:09:43.035Z,4.38
2022-09-14T11:12:28.622Z,4.50
2022-09-14T11:15:19.151Z,4.47
2022-09-14T11:18:08.011Z,4.28
2022-09-14T11:20:45.186Z,4.25
2022-09-14T11:23:26.757Z,3.90
2022-09-14T11:28:41.248Z,3.80
2022-09-14T11:31:31.300Z,3.60
2022-09-14T11:34:27.671Z,3.40
2022-09-14T11:37:01.736Z,3.40
2022-09-14T11:40:14.554Z,3.20
2022-09-14T11:42:52.649Z,3.20
2022-09-14T11:45:26.508Z,3.28
2022-09-14T11:48:31.995Z,2.85
2022-09-14T11:51:04.714Z,3.20
2022-09-14T11:53:33.629Z,3.15
2022-09-14T11:56:01.619Z,3.63
2022-09-14T11:58:29.717Z,3.58
2022-09-14T12:01:28.632Z,3.78
2022-09-14T12:04:01.983Z,3.20
2022-09-14T12:06:38.499Z,3.47
2022-09-14T12:09:20.764Z,3.20
2022-09-14T12:11:54.740Z,3.78
2022-09-14T12:14:27.865Z,3.70
2022-09-14T12:17:41.110Z,3.35
2022-09-14T12:20:42.817Z,3.20
2022-09-14T12:23:24.757Z,3.08
2022-09-14T12:28:37.211Z,2.63
2022-09-14T12:31:04.558Z,2.65
2022-09-14T12:33:32.160Z,3.22
2022-09-14T12:36:13.490Z,3.25
2022-09-14T12:39:21.325Z,3.10
2022-09-14T12:41:48.546Z,3.17
2022-09-14T12:44:43.452Z,2.78
2022-09-14T12:47:25.959Z,2.90
2022-09-14T12:49:58.689Z,2.72
2022-09-14T12:52:35.842Z,2.80
2022-09-14T12:55:31.109Z,2.72
2022-09-14T12:58:30.768Z,2.80
2022-09-14T13:01:20.888Z,2.90
2022-09-14T13:03:54.317Z,2.45
2022-09-14T13:06:23.341Z,2.80
2022-09-14T13:08:56.589Z,2.65
2022-09-14T13:11:32.180Z,2.53
2022-09-14T13:14:00.794Z,2.83
2022-09-14T13:16:40.685Z,2.63
2022-09-14T13:19:18.947Z,2.53
2022-09-14T13:21:48.495Z,2.33
2022-09-14T13:24:28.959Z,2.40
2022-09-14T13:26:59.448Z,2.72
2022-09-14T13:29:28.112Z,2.25
2022-09-14T13:32:02.371Z,2.30
2022-09-14T13:34:35.630Z,2.13
2022-09-14T13:37:05.465Z,2.17
2022-09-14T13:39:38.675Z,1.90
2022-09-14T13:42:06.797Z,2.03
2022-09-14T13:44:45.369Z,1.73
2022-09-14T13:47:20.414Z,1.83
2022-09-14T13:49:50.642Z,1.55
2022-09-14T13:52:33.931Z,1.95
2022-09-14T13:55:42.975Z,1.73
2022-09-14T13:58:21.139Z,1.60
2022-09-14T14:00:56.795Z,1.50
2022-09-14T14:03:32.934Z,1.13
2022-09-14T14:06:15.762Z,1.40
2022-09-14T14:08:43.226Z,1.27
2022-09-14T14:11:10.578Z,1.65
2022-09-14T14:13:38.329Z,1.30
2022-09-14T14:16:26.337Z,1.00
2022-09-14T14:18:58.410Z,1.02
2022-09-14T14:24:17.302Z,1.30
2022-09-14T14:26:49.773Z,1.20
2022-09-14T14:29:18.247Z,1.20
2022-09-14T14:31:46.792Z,1.20
2022-09-14T14:34:19.554Z,1.35
2022-09-14T14:36:49.870Z,1.35
2022-09-14T14:39:22.540Z,1.30
2022-09-14T14:41:50.884Z,1.80
2022-09-14T14:44:25.044Z,1.45
2022-09-14T14:46:52.371Z,1.40
2022-09-14T14:49:20.696Z,1.20
2022-09-14T14:51:48.220Z,1.20
2022-09-14T14:54:18.630Z,1.10
2022-09-14T14:56:48.185Z,1.30
2022-09-14T14:59:21.593Z,1.20
2022-09-14T15:01:50.295Z,1.33
2022-09-14T15:04:17.978Z,1.00
2022-09-14T15:06:47.601Z,1.10
2022-09-14T15:09:22.236Z,1.00
2022-09-14T15:11:50.562Z,1.10
2022-09-14T15:14:22.109Z,1.20
2022-09-14T15:16:55.095Z,1.23
2022-09-14T15:19:22.667Z,1.00
2022-09-14T15:21:50.188Z,1.10
2022-09-14T15:24:17.561Z,1.05
2022-09-14T15:26:44.972Z,0.85
2022-09-14T15:29:18.175Z,1.17
2022-09-14T15:31:46.012Z,1.55
2022-09-14T15:34:13.207Z,1.30
2022-09-14T15:36:51.081Z,1.00
2022-09-14T15:39:24.151Z,1.15
2022-09-14T15:41:52.637Z,1.27
2022-09-14T15:44:20.158Z,1.33
2022-09-14T15:46:47.978Z,1.50
2022-09-14T15:49:18.324Z,1.20
2022-09-14T15:51:47.793Z,1.08
2022-09-14T15:54:15.600Z,0.80
2022-09-14T15:56:42.827Z,1.40
2022-09-14T15:59:10.364Z,1.27
2022-09-14T16:01:37.637Z,1.30
2022-09-14T16:04:11.449Z,1.10
2022-09-14T16:06:40.299Z,0.95
2022-09-14T16:09:10.498Z,1.30
2022-09-14T16:11:38.775Z,1.45
2022-09-14T16:14:07.920Z,1.30
2022-09-14T16:16:36.296Z,0.95
2022-09-14T16:19:11.542Z,0.70
2022-09-14T16:21:39.876Z,0.70
2022-09-14T16:24:18.044Z,0.50
2022-09-14T16:26:46.566Z,0.40
2022-09-14T16:29:16.329Z,0.50
2022-09-14T16:31:45.720Z,0.40
2022-09-14T16:34:33.484Z,0.30
2022-09-14T16:37:00.746Z,1.38
2022-09-14T16:39:32.022Z,1.80
2022-09-14T16:42:00.121Z,2.45
2022-09-14T16:44:28.582Z,1.38
2022-09-14T16:46:57.999Z,1.20
2022-09-14T16:49:28.263Z,1.30
2022-09-14T16:52:00.701Z,1.88
2022-09-14T16:57:11.333Z,0.90
2022-09-14T16:59:39.185Z,1.17
2022-09-14T17:02:06.612Z,1.00
2022-09-14T17:04:34.244Z,1.10
2022-09-14T17:07:01.823Z,1.20
2022-09-14T17:09:30.397Z,1.00
2022-09-14T17:11:59.390Z,0.90
2022-09-14T17:14:30.038Z,1.13
2022-09-14T17:16:58.184Z,0.90
2022-09-14T17:19:27.118Z,1.23
2022-09-14T17:21:55.708Z,1.95
2022-09-14T17:24:24.247Z,2.05
2022-09-14T17:26:51.579Z,1.92
2022-09-14T17:29:19.614Z,1.40
2022-09-14T17:31:47.373Z,1.30
2022-09-14T17:34:17.113Z,1.38
2022-09-14T17:36:45.641Z,1.50
2022-09-14T17:39:15.595Z,1.40
2022-09-14T17:41:44.167Z,1.30
2022-09-14T17:44:16.089Z,1.60
2022-09-14T17:46:52.228Z,1.33
2022-09-14T17:49:23.127Z,1.42
2022-09-14T17:51:51.793Z,1.60
2022-09-14T17:54:20.095Z,1.52
2022-09-14T17:56:48.624Z,1.60
2022-09-14T17:59:20.293Z,1.67
2022-09-14T18:01:49.822Z,1.67
2022-09-14T18:04:18.973Z,1.90
2022-09-14T18:06:48.443Z,1.80
2022-09-14T18:09:21.397Z,1.90
2022-09-14T18:11:50.561Z,2.45
2022-09-14T18:14:19.186Z,2.00
2022-09-14T18:16:47.176Z,2.08
2022-09-14T18:19:16.038Z,2.30
2022-09-14T18:21:45.922Z,2.40
2022-09-14T18:26:47.346Z,2.33
2022-09-14T18:29:16.754Z,2.53
2022-09-14T18:31:44.733Z,1.90
2022-09-14T18:34:12.401Z,2.03
2022-09-14T18:36:40.834Z,1.75
2022-09-14T18:39:08.678Z,2.00
2022-09-14T18:41:36.221Z,2.30
2022-09-14T18:44:07.166Z,2.03
2022-09-14T18:46:34.449Z,2.00
2022-09-14T18:49:03.233Z,7.70
2022-09-14T18:51:31.854Z,4.22
2022-09-14T18:54:05.457Z,3.60
2022-09-14T18:56:34.729Z,3.75
2022-09-14T18:59:04.123Z,4.20
2022-09-14T19:01:33.698Z,4.63
2022-09-14T19:04:03.923Z,3.55
2022-09-14T19:06:33.007Z,4.30
2022-09-14T19:09:00.358Z,4.10
2022-09-14T19:11:30.648Z,5.03
2022-09-14T19:14:02.021Z,4.80
2022-09-14T19:16:30.642Z,5.50
2022-09-14T19:18:58.582Z,4.60
2022-09-14T19:21:29.702Z,5.72
2022-09-14T19:24:15.167Z,4.65
2022-09-14T19:26:51.242Z,4.65
2022-09-14T19:29:21.931Z,4.28
2022-09-14T19:31:51.818Z,3.08
2022-09-14T19:34:21.147Z,3.92
2022-09-14T19:36:49.913Z,5.13
2022-09-14T19:39:18.639Z,3.65
2022-09-14T19:41:46.499Z,5.22
2022-09-14T19:44:14.405Z,5.65
2022-09-14T19:46:42.434Z,4.35
2022-09-14T19:49:22.198Z,4.30
2022-09-14T19:51:50.245Z,3.90
2022-09-14T19:54:17.901Z,3.90
2022-09-14T19:56:48.669Z,3.70
2022-09-14T19:59:16.758Z,5.13
2022-09-14T20:01:45.000Z,3.78
2022-09-14T20:04:12.581Z,4.35
2022-09-14T20:06:42.733Z,3.92
2022-09-14T20:09:16.612Z,4.13
2022-09-14T20:11:45.710Z,4.30
2022-09-14T20:14:15.515Z,3.75
2022-09-14T20:16:45.751Z,4.40
2022-09-14T20:19:16.022Z,4.68
2022-09-14T20:21:44.547Z,4.47
2022-09-14T20:24:33.443Z,4.60
2022-09-14T20:27:02.125Z,4.45
2022-09-14T20:29:32.126Z,5.50
2022-09-14T20:31:59.723Z,6.78
2022-09-14T20:34:27.402Z,11.13
2022-09-14T20:36:56.106Z,7.80
2022-09-14T20:39:24.184Z,7.55
2022-09-14T20:41:52.080Z,6.10
2022-09-14T20:44:22.264Z,5.47
2022-09-14T20:46:51.073Z,6.25
2022-09-14T20:49:21.125Z,4.80
2022-09-14T20:51:48.771Z,4.40
2022-09-14T20:54:17.909Z,5.50
2022-09-14T20:56:49.267Z,4.13
2022-09-14T20:59:18.519Z,3.88
2022-09-14T21:01:47.683Z,3.60
2022-09-14T21:04:17.919Z,4.40
2022-09-14T21:06:48.446Z,3.95
2022-09-14T21:09:18.388Z,3.93
2022-09-14T21:11:47.784Z,3.95
2022-09-14T21:14:17.292Z,4.60
2022-09-14T21:16:47.247Z,4.07
2022-09-14T21:19:27.351Z,3.95
2022-09-14T21:21:56.730Z,4.03
2022-09-14T21:24:26.608Z,4.30
2022-09-14T21:26:55.640Z,4.10
2022-09-14T21:29:25.097Z,3.80
2022-09-14T21:31:53.141Z,4.35
2022-09-14T21:34:20.924Z,3.92
2022-09-14T21:36:50.915Z,3.88
2022-09-14T21:39:23.023Z,3.92
2022-09-14T21:41:58.037Z,4.47
2022-09-14T21:44:31.111Z,3.95
2022-09-14T21:46:58.785Z,3.65
2022-09-14T21:49:26.419Z,3.90
2022-09-14T21:51:55.380Z,4.07
2022-09-14T21:54:23.320Z,4.35
2022-09-14T21:56:52.724Z,3.80
2022-09-14T21:59:22.983Z,3.97
2022-09-14T22:01:51.118Z,3.85
2022-09-14T22:04:21.410Z,3.72
2022-09-14T22:06:51.433Z,3.70
2022-09-14T22:09:25.412Z,3.50
2022-09-14T22:11:53.277Z,3.90
2022-09-14T22:14:27.455Z,3.63
2022-09-14T22:16:54.940Z,3.88
2022-09-14T22:19:25.602Z,4.22
2022-09-14T22:21:53.292Z,4.13
2022-09-14T22:24:28.065Z,4.22
2022-09-14T22:26:57.451Z,4.18
2022-09-14T22:29:24.994Z,3.90
2022-09-14T22:31:52.471Z,5.50
2022-09-14T22:34:21.325Z,5.60
2022-09-14T22:36:48.646Z,7.25
2022-09-14T22:39:16.127Z,6.45
2022-09-14T22:41:43.636Z,7.38
2022-09-14T22:44:12.612Z,7.35
2022-09-14T22:46:40.220Z,8.98
2022-09-14T22:49:09.028Z,9.15
2022-09-14T22:51:36.765Z,9.18
2022-09-14T22:54:05.165Z,10.00
2022-09-14T22:56:36.965Z,9.88
2022-09-14T22:59:07.113Z,9.88
2022-09-14T23:01:37.217Z,8.23
2022-09-14T23:04:07.557Z,8.00
2022-09-14T23:06:40.668Z,8.73
2022-09-14T23:09:10.827Z,9.18
2022-09-14T23:11:38.556Z,8.35
2022-09-14T23:14:06.326Z,9.10
2022-09-14T23:16:34.222Z,12.73
2022-09-14T23:19:02.863Z,9.95
2022-09-14T23:21:31.629Z,6.72
2022-09-14T23:24:00.594Z,4.97
2022-09-14T23:26:28.834Z,4.60
2022-09-14T23:29:00.745Z,3.78
2022-09-14T23:31:29.323Z,3.20
2022-09-14T23:33:57.815Z,3.33
2022-09-14T23:36:25.819Z,2.83
2022-09-14T23:38:55.055Z,3.35
2022-09-14T23:41:23.702Z,3.20
2022-09-14T23:43:52.293Z,3.28
2022-09-14T23:46:40.408Z,2.85
2022-09-14T23:49:08.162Z,3.05
2022-09-14T23:51:36.475Z,2.90
2022-09-14T23:54:05.134Z,3.05
2022-09-14T23:56:33.045Z,3.28
2022-09-14T23:59:00.691Z,3.17
